Macomb, IL (61455)

7:11 AM CST on December 05, 2016 (GMT -0600)
Tillman Hall - WIU Geography | | Change Station
Active Advisory: Dense Fog Advisory Active Notice: Local Storm Report

Elev 712 ft 40.46 °N, 90.68 °W | Updated 10 minutes ago

Fog
Fog
32.9 °F
Feels Like 33 °F
N
0.0
Wind Variable Wind from WSW
Gusts 0.0 mph

Today
High -- | Low -- °F
--% Chance of Precip.
Yesterday
High -- | Low -- °F
Precip. -- in
Pressure 30.02 in
Visibility 0.5 miles
Clouds Overcast 300 ft
Windchill 33 °F
Dew Point 31 °F
Humidity 92%
Rainfall --
Snow Depth Not available.
7:11 AM 4:35 PM
Waxing Crescent, 31% visible
METAR KMQB 051255Z AUTO 17008KT 1/2SM FG OVC003 00/00 A3002 RMK AO2 T00000000
Pressure 30.02 in
Visibility 0.5 miles
Clouds Overcast 300 ft
Windchill 33 °F
Dew Point 31 °F
Humidity 92%
Rainfall --
Snow Depth Not available.
7:11 AM 4:35 PM
Waxing Crescent, 31% visible
METAR KMQB 051255Z AUTO 17008KT 1/2SM FG OVC003 00/00 A3002 RMK AO2 T00000000

10-Day Weather Forecast

Almanac

Astronomy

Dec. 05, 2016 Rise Set
Actual Time
Civil Twilight
Nautical Twilight
Astronomical Twilight
Moon
Length of Visible Light
Length of Day
Tomorrow will be .
, % of the Moon is Illuminated

Today's Extremes

State Highs State Lows

Community

WunderPhotos

Upload Photos

1,955,780 photos uploaded!

WunderBlog® & News

Nearby

Air Quality

  Air Quality AQ Index Pollutant
Not available.

Snow Depth

Station Depth Elevation

Earthquake Activity

City Distance Mag. Time & Date
Minimum magnitude displayed is 2.5.

Coastal Water Temperatures

Place Temperature

Stations

Nearby Weather Stations

Station Location Temp. Windchill Dew Point Humidity Wind Precip. Elev Updated Type
                   

Watches & Warnings

Dense Fog Advisory
Issued: 5:47 AM CST Dec. 5, 2016 – National Weather Service

... Dense fog advisory remains in effect until noon CST today...

* timing... now through noon Monday.

* Impacts... visibilities less than 1/4 mile and some near zero
will make driving difficult.

Precautionary/preparedness actions...

A dense fog advisory means visibilities will frequently be
reduced to less than one quarter mile. If driving... slow down...
use your headlights... and leave plenty of distance ahead of you.



Gibbs